Time;durP1;ratioP1;P1;durP2;ratioP2;P2;SDS_P1;SDS_P2;PMS_P1;PMS_P2;Temp;Humidity;BMP_temperature;BMP_pressure;BME280_temperature;BME280_humidity;BME280_pressure;Samples;Min_cycle;Max_cycle;Signal;HPM_P1;HPM_P2
2023/07/28 00:01:34;;;;;;;3.20;0.70;;;;;;;24.88;54.85;100317.63;5039431;28;20036;-63
2023/07/28 00:03:59;;;;;;;4.93;1.33;;;;;;;24.89;54.79;100324.78;5055678;28;20040;-62
2023/07/28 00:06:24;;;;;;;1.25;0.63;;;;;;;24.88;54.43;100323.09;5038520;28;20566;-63
2023/07/28 00:08:50;;;;;;;2.83;0.80;;;;;;;24.90;54.83;100320.94;5055910;28;20029;-63
2023/07/28 00:11:15;;;;;;;1.67;0.68;;;;;;;24.90;54.53;100325.63;5053017;28;20048;-63
2023/07/28 00:13:41;;;;;;;1.38;0.85;;;;;;;24.92;54.86;100328.97;5052793;28;20523;-63
2023/07/28 00:16:08;;;;;;;4.70;0.70;;;;;;;24.92;54.64;100317.16;5053734;28;20041;-63
2023/07/28 00:18:33;;;;;;;0.60;0.43;;;;;;;24.91;54.65;100316.31;5052412;28;20511;-63
2023/07/28 00:20:59;;;;;;;2.88;0.57;;;;;;;24.94;54.89;100321.31;5035725;28;20025;-63
2023/07/28 00:23:24;;;;;;;1.10;0.50;;;;;;;24.93;54.50;100316.09;5052357;28;20033;-63
2023/07/28 00:25:50;;;;;;;0.80;0.60;;;;;;;24.96;54.60;100315.63;5053516;28;20087;-63
2023/07/28 00:28:15;;;;;;;0.95;0.70;;;;;;;24.97;54.45;100315.38;5053437;28;20020;-63
2023/07/28 00:30:41;;;;;;;0.80;0.80;;;;;;;24.96;54.68;100319.19;5052461;28;20017;-63
2023/07/28 00:33:07;;;;;;;2.30;0.73;;;;;;;24.96;54.54;100316.44;5053572;28;20128;-63
2023/07/28 00:35:32;;;;;;;1.42;0.52;;;;;;;24.95;54.83;100308.47;5052434;28;20465;-63
2023/07/28 00:37:58;;;;;;;0.77;0.43;;;;;;;24.94;54.79;100306.78;5053538;28;20017;-62
2023/07/28 00:40:23;;;;;;;0.60;0.60;;;;;;;24.96;54.83;100307.41;5052095;28;20017;-62
2023/07/28 00:42:49;;;;;;;4.03;0.73;;;;;;;24.92;54.86;100298.81;5051989;28;20017;-63
2023/07/28 00:45:14;;;;;;;1.15;0.60;;;;;;;24.96;54.55;100310.16;5034103;28;20025;-65
2023/07/28 00:47:41;;;;;;;0.73;0.60;;;;;;;24.94;54.52;100309.53;5043107;28;20104;-62
2023/07/28 00:50:08;;;;;;;0.73;0.73;;;;;;;24.92;54.72;100301.56;5031962;28;20020;-62
2023/07/28 00:52:33;;;;;;;1.30;0.75;;;;;;;24.90;54.91;100310.00;5014920;28;20512;-63
2023/07/28 00:54:59;;;;;;;0.68;0.50;;;;;;;24.93;55.03;100308.69;5031919;28;20053;-62
2023/07/28 00:57:24;;;;;;;1.80;0.40;;;;;;;24.92;55.00;100306.19;5015393;28;20030;-63
2023/07/28 00:59:50;;;;;;;1.25;0.52;;;;;;;24.94;55.07;100304.03;5031921;28;20029;-64
2023/07/28 01:02:16;;;;;;;0.98;0.70;;;;;;;24.94;55.49;100307.63;5033127;28;20473;-63
2023/07/28 01:04:41;;;;;;;1.35;0.55;;;;;;;24.95;54.81;100297.50;5031565;28;20037;-63
2023/07/28 01:07:16;;;;;;;1.38;0.80;;;;;;;24.94;55.04;100310.38;5031791;28;20025;-64
2023/07/28 01:09:53;;;;;;;0.65;0.47;;;;;;;24.92;54.88;100306.19;5031660;28;20065;-64
2023/07/28 01:12:18;;;;;;;2.47;0.60;;;;;;;24.90;55.19;100301.78;5031755;28;20049;-63
2023/07/28 01:14:44;;;;;;;1.77;0.40;;;;;;;24.93;54.77;100303.19;5032952;28;20021;-63
2023/07/28 01:17:10;;;;;;;0.82;0.70;;;;;;;24.93;55.07;100296.91;5033026;28;20485;-64
2023/07/28 01:19:35;;;;;;;0.88;0.63;;;;;;;24.93;55.08;100308.69;5015235;28;20409;-63
2023/07/28 01:22:17;;;;;;;0.63;0.50;;;;;;;24.94;55.29;100306.78;5031614;28;20106;-63
2023/07/28 01:24:55;;;;;;;2.53;0.60;;;;;;;24.94;55.24;100309.53;5031618;28;20049;-64
2023/07/28 01:27:21;;;;;;;1.02;0.60;;;;;;;24.87;54.88;100309.66;5032765;28;20049;-63
2023/07/28 01:29:47;;;;;;;3.60;1.15;;;;;;;24.83;55.28;100308.44;5031355;28;20080;-62
2023/07/28 01:32:14;;;;;;;1.42;0.70;;;;;;;24.78;55.35;100308.28;5032843;28;20040;-62
2023/07/28 01:34:39;;;;;;;3.63;0.52;;;;;;;24.76;55.77;100311.22;5032049;28;20112;-62
2023/07/28 01:37:05;;;;;;;1.80;0.80;;;;;;;24.77;55.34;100312.91;5032867;28;20029;-62
2023/07/28 01:39:31;;;;;;;0.80;0.50;;;;;;;24.76;55.45;100305.75;5031879;28;20515;-62
2023/07/28 01:41:58;;;;;;;0.50;0.50;;;;;;;24.77;55.85;100315.66;5043528;28;20063;-62
2023/07/28 01:44:23;;;;;;;0.90;0.65;;;;;;;24.75;55.81;100304.09;5052632;28;20040;-62
2023/07/28 01:46:48;;;;;;;1.35;0.73;;;;;;;24.76;55.42;100302.19;5050696;28;20029;-62
2023/07/28 01:49:14;;;;;;;3.22;1.20;;;;;;;24.76;55.72;100297.53;5052517;28;20040;-62
2023/07/28 01:51:39;;;;;;;2.60;0.70;;;;;;;24.70;55.66;100293.03;5052495;28;20033;-62
2023/07/28 01:54:05;;;;;;;2.00;0.47;;;;;;;24.67;55.86;100298.97;5050919;28;20107;-62
2023/07/28 01:56:30;;;;;;;0.60;0.60;;;;;;;24.63;56.40;100302.38;5051175;28;20041;-62
2023/07/28 01:58:56;;;;;;;1.00;0.80;;;;;;;24.61;55.73;100305.38;5034597;28;20033;-62
2023/07/28 02:01:22;;;;;;;1.77;0.32;;;;;;;24.58;56.32;100303.09;5051157;28;20033;-63
2023/07/28 02:03:48;;;;;;;1.95;0.50;;;;;;;24.56;56.29;100302.50;5053674;28;20454;-63
2023/07/28 02:06:13;;;;;;;0.77;0.55;;;;;;;24.53;56.01;100300.22;5056008;28;20500;-63
2023/07/28 02:08:39;;;;;;;3.72;0.80;;;;;;;24.51;56.94;100298.78;5056354;28;20039;-64
2023/07/28 02:11:04;;;;;;;2.22;0.55;;;;;;;24.52;56.47;100306.75;5055298;28;20037;-63
2023/07/28 02:13:29;;;;;;;0.82;0.63;;;;;;;24.55;56.21;100305.47;5056161;28;20049;-63
2023/07/28 02:15:55;;;;;;;7.00;1.30;;;;;;;24.52;56.29;100301.28;5054801;28;20029;-62
2023/07/28 02:18:21;;;;;;;3.67;0.70;;;;;;;24.54;56.52;100303.81;5054849;28;20029;-63
2023/07/28 02:20:48;;;;;;;0.32;0.30;;;;;;;24.56;56.24;100305.25;5055117;28;20532;-63
2023/07/28 02:23:14;;;;;;;0.50;0.50;;;;;;;24.53;56.26;100302.97;5054725;28;20029;-63
2023/07/28 02:25:39;;;;;;;0.50;0.50;;;;;;;24.54;57.02;100306.53;5054892;28;20389;-63
2023/07/28 02:28:05;;;;;;;0.77;0.60;;;;;;;24.56;56.42;100305.25;5055897;28;20064;-63
2023/07/28 02:30:30;;;;;;;1.23;0.50;;;;;;;24.52;56.11;100304.03;5054145;28;20549;-63
2023/07/28 02:32:56;;;;;;;1.38;0.75;;;;;;;24.53;56.48;100302.97;5056002;28;20369;-63
2023/07/28 02:35:21;;;;;;;2.20;0.45;;;;;;;24.52;56.55;100309.50;5055853;28;20033;-63
2023/07/28 02:37:46;;;;;;;3.92;1.77;;;;;;;24.52;56.30;100305.91;5054595;28;20412;-63
2023/07/28 02:40:13;;;;;;;0.70;0.50;;;;;;;24.52;56.74;100304.03;5054301;28;20075;-63
2023/07/28 02:42:38;;;;;;;0.90;0.60;;;;;;;24.53;56.39;100300.22;5055787;28;20033;-63
2023/07/28 02:45:04;;;;;;;1.75;0.90;;;;;;;24.52;56.82;100295.81;5055652;28;20048;-63
2023/07/28 02:47:29;;;;;;;0.28;0.28;;;;;;;24.52;56.48;100305.91;5037723;28;20103;-64
2023/07/28 02:49:55;;;;;;;0.40;0.40;;;;;;;24.53;56.20;100304.88;5055674;28;20029;-63
2023/07/28 02:52:21;;;;;;;0.25;0.25;;;;;;;24.52;55.86;100305.91;5048252;28;20056;-63
2023/07/28 02:54:46;;;;;;;1.30;0.30;;;;;;;24.46;56.74;100312.31;5058691;28;20223;-63
2023/07/28 02:57:11;;;;;;;0.63;0.50;;;;;;;24.42;56.64;100311.13;5053784;28;20029;-63
2023/07/28 02:59:37;;;;;;;0.73;0.30;;;;;;;24.41;57.17;100317.66;5055288;28;20047;-64
2023/07/28 03:02:02;;;;;;;0.40;0.40;;;;;;;24.34;57.14;100310.38;5054097;28;20071;-66
2023/07/28 03:04:27;;;;;;;0.30;0.30;;;;;;;24.30;57.15;100325.59;5055123;28;20041;-65
2023/07/28 03:06:53;;;;;;;0.52;0.40;;;;;;;24.30;57.15;100322.03;5055278;28;20037;-65
2023/07/28 03:09:18;;;;;;;0.40;0.40;;;;;;;24.30;57.00;100324.75;5037357;28;20036;-65
2023/07/28 03:11:44;;;;;;;1.05;0.50;;;;;;;24.31;57.02;100320.97;5053696;28;20116;-64
2023/07/28 03:14:09;;;;;;;0.50;0.43;;;;;;;24.32;57.18;100328.94;5054509;28;20028;-64
2023/07/28 03:16:35;;;;;;;2.78;0.80;;;;;;;24.31;57.00;100331.94;5055080;28;20060;-64
2023/07/28 03:19:01;;;;;;;2.22;0.65;;;;;;;24.31;57.35;100327.28;5055031;28;20060;-66
2023/07/28 03:21:30;;;;;;;1.02;0.43;;;;;;;24.33;57.47;100336.09;5054842;28;20033;-63
2023/07/28 03:23:55;;;;;;;0.98;0.55;;;;;;;24.35;56.80;100333.13;5053795;28;20029;-64
2023/07/28 03:26:20;;;;;;;0.70;0.43;;;;;;;24.38;56.83;100338.13;5055035;28;20523;-64
2023/07/28 03:28:46;;;;;;;0.60;0.47;;;;;;;24.39;56.73;100328.88;5054962;28;20385;-64
2023/07/28 03:31:11;;;;;;;0.63;0.63;;;;;;;24.38;57.30;100338.13;5053625;28;20047;-64
2023/07/28 03:33:38;;;;;;;0.50;0.50;;;;;;;24.39;57.39;100339.81;5053544;28;20403;-63
2023/07/28 03:36:04;;;;;;;1.75;0.50;;;;;;;24.38;57.15;100345.50;5053469;28;20040;-63
2023/07/28 03:38:30;;;;;;;2.53;0.60;;;;;;;24.38;57.24;100354.56;5053259;28;20053;-63
2023/07/28 03:40:56;;;;;;;0.43;0.30;;;;;;;24.39;57.61;100344.44;5053372;28;20037;-63
2023/07/28 03:43:21;;;;;;;4.88;0.63;;;;;;;24.40;57.49;100333.25;5054373;28;20056;-64
2023/07/28 03:45:47;;;;;;;1.67;0.40;;;;;;;24.41;57.39;100334.94;5053169;28;20045;-63
2023/07/28 03:48:12;;;;;;;0.40;0.30;;;;;;;24.44;57.55;100342.69;5036336;28;20504;-64
2023/07/28 03:50:37;;;;;;;1.58;0.35;;;;;;;24.46;57.51;100335.06;5052876;28;20508;-64
2023/07/28 03:53:03;;;;;;;0.30;0.30;;;;;;;24.46;57.46;100345.19;5036268;28;20056;-64
2023/07/28 03:55:28;;;;;;;1.08;0.50;;;;;;;24.49;57.05;100350.19;5053955;28;20053;-63
2023/07/28 03:57:53;;;;;;;0.55;0.40;;;;;;;24.50;57.52;100349.16;5053874;28;20496;-64
2023/07/28 04:00:19;;;;;;;1.83;0.60;;;;;;;24.51;57.41;100354.38;5054138;28;20107;-63
2023/07/28 04:02:44;;;;;;;0.45;0.38;;;;;;;24.51;57.09;100348.09;5035898;28;20025;-63
2023/07/28 04:05:10;;;;;;;0.55;0.55;;;;;;;24.52;57.88;100347.84;5052648;28;20040;-63
2023/07/28 04:07:35;;;;;;;2.28;0.50;;;;;;;24.54;57.06;100356.66;5052523;28;20562;-63
2023/07/28 04:10:00;;;;;;;0.40;0.38;;;;;;;24.54;57.38;100345.69;5036025;28;20112;-63
2023/07/28 04:12:26;;;;;;;1.17;0.45;;;;;;;24.53;57.20;100337.72;5053900;28;20076;-63
2023/07/28 04:14:52;;;;;;;0.50;0.50;;;;;;;24.53;57.25;100346.78;5053793;28;20404;-63
2023/07/28 04:17:17;;;;;;;1.13;1.13;;;;;;;24.54;57.08;100339.41;5053632;28;20102;-63
2023/07/28 04:19:43;;;;;;;1.10;0.52;;;;;;;24.55;57.50;100344.66;5053604;28;20032;-63
2023/07/28 04:22:08;;;;;;;0.50;0.50;;;;;;;24.58;57.11;100344.19;5052540;28;20033;-63
2023/07/28 04:24:34;;;;;;;0.50;0.40;;;;;;;24.59;57.46;100343.13;5053607;28;20029;-64
2023/07/28 04:26:59;;;;;;;2.15;0.70;;;;;;;24.62;57.41;100350.84;5052694;28;20465;-64
2023/07/28 04:29:26;;;;;;;3.50;0.80;;;;;;;24.62;57.11;100345.38;5035839;28;20029;-63
2023/07/28 04:31:52;;;;;;;0.70;0.70;;;;;;;24.65;57.16;100350.38;5053561;28;20028;-63
2023/07/28 04:34:18;;;;;;;1.00;0.70;;;;;;;24.65;57.17;100341.34;5053594;28;20037;-63
2023/07/28 04:36:43;;;;;;;0.63;0.60;;;;;;;24.66;56.99;100343.84;5052225;28;20040;-63
2023/07/28 04:39:09;;;;;;;2.35;0.70;;;;;;;24.69;56.79;100348.88;5053648;28;20029;-63
2023/07/28 04:41:34;;;;;;;1.75;1.00;;;;;;;24.68;57.18;100349.94;5053520;28;20120;-63
2023/07/28 04:43:59;;;;;;;1.70;0.80;;;;;;;24.70;57.20;100358.78;5052018;28;20082;-64
2023/07/28 04:46:25;;;;;;;0.65;0.50;;;;;;;24.74;57.13;100359.13;5052124;28;20088;-63
2023/07/28 04:48:50;;;;;;;1.20;0.80;;;;;;;24.72;57.14;100362.09;5051969;28;20031;-63
2023/07/28 04:51:15;;;;;;;1.23;1.00;;;;;;;24.68;57.06;100371.84;5052111;28;20497;-62
2023/07/28 04:53:41;;;;;;;1.25;1.00;;;;;;;24.65;57.61;100366.00;5053149;28;20554;-63
2023/07/28 04:56:07;;;;;;;1.33;1.00;;;;;;;24.63;57.41;100371.72;5050598;28;20234;-63
2023/07/28 04:58:33;;;;;;;1.67;0.93;;;;;;;24.62;57.66;100363.75;5053255;28;20527;-62
2023/07/28 05:00:58;;;;;;;1.20;0.88;;;;;;;24.63;57.33;100373.59;5051873;28;20032;-62
2023/07/28 05:03:24;;;;;;;4.60;1.25;;;;;;;24.65;57.61;100375.03;5052709;28;20043;-63
2023/07/28 05:05:50;;;;;;;1.70;1.35;;;;;;;24.64;57.67;100381.59;5052970;28;20040;-62
2023/07/28 05:08:15;;;;;;;2.15;1.88;;;;;;;24.64;57.43;100381.59;5052733;28;20035;-62
2023/07/28 05:10:41;;;;;;;3.40;1.20;;;;;;;24.65;57.58;100388.75;5051348;28;20029;-63
2023/07/28 05:13:06;;;;;;;4.40;1.42;;;;;;;24.68;57.97;100384.72;5052787;28;20041;-63
2023/07/28 05:15:32;;;;;;;1.85;1.30;;;;;;;24.69;57.88;100383.63;5035148;28;20028;-63
2023/07/28 05:17:57;;;;;;;4.15;2.10;;;;;;;24.67;57.59;100386.63;5034941;28;20052;-63
2023/07/28 05:20:22;;;;;;;2.30;1.50;;;;;;;24.70;57.35;100390.81;5050890;28;20068;-63
2023/07/28 05:22:48;;;;;;;1.77;1.33;;;;;;;24.75;57.45;100389.03;5032685;28;20042;-63
2023/07/28 05:25:13;;;;;;;2.83;1.75;;;;;;;24.74;57.32;100392.84;5050939;28;20112;-63
2023/07/28 05:27:39;;;;;;;3.10;1.98;;;;;;;24.76;57.22;100401.66;5052026;28;20079;-64
2023/07/28 05:30:04;;;;;;;1.48;1.38;;;;;;;24.81;57.59;100404.59;5050758;28;20041;-64
2023/07/28 05:32:30;;;;;;;2.85;1.83;;;;;;;24.83;57.09;100399.69;5034310;28;20527;-62
2023/07/28 05:34:55;;;;;;;3.67;1.85;;;;;;;24.87;57.45;100409.13;5033597;28;20030;-63
2023/07/28 05:37:21;;;;;;;2.58;1.63;;;;;;;24.88;57.43;100405.31;5049986;28;20108;-63
2023/07/28 05:39:46;;;;;;;2.90;2.08;;;;;;;24.84;57.34;100411.50;5055092;28;20033;-65
2023/07/28 05:42:12;;;;;;;2.00;1.80;;;;;;;24.83;57.00;100413.41;5056380;28;20021;-64
2023/07/28 05:44:37;;;;;;;3.40;1.77;;;;;;;24.81;57.38;100415.56;5038247;28;20025;-64
2023/07/28 05:47:02;;;;;;;3.25;1.60;;;;;;;24.87;57.53;100414.59;5054819;28;20025;-64
2023/07/28 05:49:28;;;;;;;2.65;1.90;;;;;;;24.94;57.45;100414.50;5056024;28;20033;-64
2023/07/28 05:51:53;;;;;;;4.90;1.80;;;;;;;24.93;57.23;100414.75;5055092;28;20025;-64
2023/07/28 05:54:18;;;;;;;4.13;1.70;;;;;;;24.96;57.46;100412.38;5056239;28;20527;-63
2023/07/28 05:56:44;;;;;;;6.00;1.75;;;;;;;24.97;57.16;100413.22;5056390;28;20033;-63
2023/07/28 05:59:10;;;;;;;1.73;1.30;;;;;;;25.01;57.50;100420.75;5056300;28;20026;-64
2023/07/28 06:01:35;;;;;;;4.50;1.42;;;;;;;25.05;57.48;100416.47;5055084;28;20115;-67
2023/07/28 06:04:01;;;;;;;6.95;2.03;;;;;;;25.10;57.24;100424.00;5056187;28;20029;-66
2023/07/28 06:06:27;;;;;;;5.30;1.70;;;;;;;25.13;57.00;100428.97;5056307;28;20516;-66
2023/07/28 06:08:53;;;;;;;2.65;1.40;;;;;;;25.13;57.23;100428.97;5054883;28;20033;-65
2023/07/28 06:11:18;;;;;;;2.20;1.58;;;;;;;25.17;57.15;100430.22;5054865;28;20041;-64
2023/07/28 06:13:46;;;;;;;4.28;1.38;;;;;;;25.19;57.06;100428.91;5054667;28;20033;-64
2023/07/28 06:16:11;;;;;;;2.20;1.30;;;;;;;25.24;56.83;100431.75;5056093;28;20029;-65
2023/07/28 06:18:37;;;;;;;2.80;1.42;;;;;;;25.29;56.52;100433.81;5054406;28;20120;-65
2023/07/28 06:21:02;;;;;;;1.52;1.42;;;;;;;25.29;56.54;100431.09;5055930;28;20025;-65
2023/07/28 06:23:28;;;;;;;1.70;0.82;;;;;;;25.30;57.10;100430.00;5037855;28;20017;-64
2023/07/28 06:25:54;;;;;;;1.52;1.17;;;;;;;25.31;56.70;100428.94;5055619;28;20031;-63
2023/07/28 06:28:20;;;;;;;1.73;1.13;;;;;;;25.35;56.95;100432.84;5055687;28;20469;-64
2023/07/28 06:30:45;;;;;;;2.30;1.50;;;;;;;25.39;57.08;100428.59;5054418;28;20032;-64
2023/07/28 06:33:11;;;;;;;2.05;1.17;;;;;;;25.46;56.27;100432.88;5055896;28;20008;-64
2023/07/28 06:35:36;;;;;;;1.73;1.23;;;;;;;25.50;56.84;100444.25;5055680;28;20033;-64
2023/07/28 06:38:02;;;;;;;4.65;0.95;;;;;;;25.53;55.87;100441.06;5054601;28;20021;-64
2023/07/28 06:40:27;;;;;;;1.67;0.82;;;;;;;25.52;56.36;100439.38;5037671;28;20024;-64
2023/07/28 06:42:52;;;;;;;2.45;1.13;;;;;;;25.53;56.17;100440.22;5055476;28;20025;-64
2023/07/28 06:45:18;;;;;;;1.65;0.98;;;;;;;25.58;55.98;100445.81;5055641;28;20025;-63
2023/07/28 06:47:43;;;;;;;7.07;1.00;;;;;;;25.59;56.17;100447.50;5053227;28;20063;-63
2023/07/28 06:50:11;;;;;;;2.35;0.95;;;;;;;25.64;56.13;100451.22;5036908;28;20048;-63
2023/07/28 06:52:36;;;;;;;2.75;0.93;;;;;;;25.69;55.80;100453.22;5054559;28;20024;-63
2023/07/28 06:55:01;;;;;;;0.85;0.80;;;;;;;25.73;55.82;100452.53;5055616;28;20049;-63
2023/07/28 06:57:27;;;;;;;2.78;1.10;;;;;;;25.79;56.43;100450.75;5056886;28;20031;-63
2023/07/28 06:59:53;;;;;;;1.92;0.70;;;;;;;25.82;55.70;100453.88;5056481;28;20091;-63
2023/07/28 07:02:18;;;;;;;0.55;0.55;;;;;;;25.86;55.68;100457.78;5055252;28;20021;-63
2023/07/28 07:04:44;;;;;;;3.38;0.80;;;;;;;25.93;55.83;100460.44;5039227;28;20112;-63
2023/07/28 07:07:09;;;;;;;1.67;0.93;;;;;;;25.96;55.72;100468.19;5055535;28;20037;-62
2023/07/28 07:09:35;;;;;;;2.05;0.90;;;;;;;26.01;55.58;100466.41;5038152;28;20021;-62
2023/07/28 07:12:01;;;;;;;1.52;0.80;;;;;;;26.03;55.73;100464.25;5053691;28;20025;-62
2023/07/28 07:14:26;;;;;;;2.00;1.15;;;;;;;26.07;55.67;100469.25;5055222;28;20366;-62
2023/07/28 07:16:51;;;;;;;1.80;0.68;;;;;;;26.07;56.02;100467.34;5054722;28;20025;-62
2023/07/28 07:19:17;;;;;;;1.52;1.10;;;;;;;26.12;55.94;100477.59;5053991;28;20051;-62
2023/07/28 07:21:44;;;;;;;1.40;1.00;;;;;;;26.13;55.92;100471.84;5053618;28;20117;-62
2023/07/28 07:24:10;;;;;;;1.40;0.77;;;;;;;26.16;55.82;100473.34;5053471;28;20058;-63
2023/07/28 07:26:35;;;;;;;1.80;0.93;;;;;;;26.17;55.73;100470.34;5054807;28;20096;-63
2023/07/28 07:29:00;;;;;;;5.30;1.15;;;;;;;26.20;55.30;100471.78;5054975;28;20053;-63
2023/07/28 07:31:26;;;;;;;1.23;0.80;;;;;;;26.24;55.12;100479.31;5053547;28;20032;-62
2023/07/28 07:33:51;;;;;;;2.22;1.05;;;;;;;26.28;55.22;100476.91;5053422;28;20048;-63
2023/07/28 07:36:18;;;;;;;0.70;0.70;;;;;;;26.34;55.51;100481.44;5054792;28;20041;-62
2023/07/28 07:38:47;;;;;;;3.08;0.82;;;;;;;26.41;55.03;100477.47;5053344;28;20036;-63
2023/07/28 07:41:15;;;;;;;1.67;0.63;;;;;;;26.54;54.97;100487.41;5037129;28;20025;-63
2023/07/28 07:43:41;;;;;;;5.38;0.55;;;;;;;26.59;54.73;100480.09;5036859;28;20043;-62
2023/07/28 07:46:06;;;;;;;1.00;0.75;;;;;;;26.67;55.03;100481.63;5053060;28;20443;-62
2023/07/28 07:48:31;;;;;;;1.38;0.60;;;;;;;26.80;54.88;100478.63;5053219;28;20079;-63
2023/07/28 07:50:57;;;;;;;1.88;0.70;;;;;;;26.89;54.50;100482.66;5054445;28;20652;-62
2023/07/28 07:53:22;;;;;;;3.38;0.75;;;;;;;26.99;54.89;100484.78;5054595;28;20053;-62
2023/07/28 07:55:49;;;;;;;0.50;0.50;;;;;;;27.11;54.01;100480.91;5052832;28;20524;-62
2023/07/28 07:58:14;;;;;;;0.57;0.50;;;;;;;27.23;54.54;100474.50;5052875;28;20029;-62
2023/07/28 08:00:40;;;;;;;1.85;0.55;;;;;;;27.43;53.59;100475.75;5053179;28;20031;-65
2023/07/28 08:03:05;;;;;;;0.80;0.57;;;;;;;27.78;53.75;100478.25;5053554;28;20389;-62
2023/07/28 08:05:31;;;;;;;1.20;0.30;;;;;;;27.93;53.31;100474.94;5054369;28;20030;-63
2023/07/28 08:07:56;;;;;;;2.03;0.63;;;;;;;28.14;53.70;100476.97;5054210;28;20029;-64
2023/07/28 08:10:22;;;;;;;1.05;0.60;;;;;;;28.52;52.19;100471.44;5052978;28;20021;-64
2023/07/28 08:12:47;;;;;;;0.38;0.32;;;;;;;28.97;52.36;100475.88;5053013;28;20420;-65
2023/07/28 08:15:13;;;;;;;0.50;0.30;;;;;;;29.17;52.04;100474.19;5054275;28;20029;-65
2023/07/28 08:17:39;;;;;;;1.30;0.43;;;;;;;29.43;52.01;100469.75;5052674;28;20455;-64
2023/07/28 08:20:06;;;;;;;1.85;0.20;;;;;;;29.42;52.04;100468.97;5036558;28;20049;-65
2023/07/28 08:22:32;;;;;;;0.50;0.32;;;;;;;29.50;51.43;100467.63;5055501;28;20043;-67
2023/07/28 08:24:57;;;;;;;2.22;0.40;;;;;;;29.71;51.76;100476.91;5055778;28;20444;-65
2023/07/28 08:27:23;;;;;;;0.30;0.30;;;;;;;29.80;51.22;100469.84;5052930;28;20392;-64
2023/07/28 08:29:49;;;;;;;0.20;0.20;;;;;;;30.21;50.75;100482.84;5052975;28;20029;-65
2023/07/28 08:32:14;;;;;;;0.20;0.20;;;;;;;30.55;50.11;100484.19;5036179;28;20032;-64
2023/07/28 08:34:40;;;;;;;0.32;0.30;;;;;;;30.75;49.93;100479.84;5051559;28;20431;-65
2023/07/28 08:37:05;;;;;;;1.65;0.30;;;;;;;30.95;49.13;100488.28;5053493;28;20049;-65
2023/07/28 08:39:32;;;;;;;0.95;0.38;;;;;;;31.16;48.87;100495.53;5053481;28;20033;-64
2023/07/28 08:42:00;;;;;;;0.45;0.40;;;;;;;31.14;48.89;100487.50;5052299;28;20468;-64
2023/07/28 08:44:26;;;;;;;0.28;0.25;;;;;;;30.98;49.54;100493.28;5052651;28;20059;-64
2023/07/28 08:46:51;;;;;;;3.03;0.30;;;;;;;30.78;49.71;100493.16;5052436;28;20026;-64
2023/07/28 08:49:17;;;;;;;1.75;0.30;;;;;;;30.68;49.63;100498.66;5052061;28;20091;-64
2023/07/28 08:51:42;;;;;;;0.65;0.30;;;;;;;30.60;49.40;100496.41;5053175;28;20083;-64
2023/07/28 08:54:08;;;;;;;0.20;0.20;;;;;;;30.50;49.08;100500.78;5053314;28;20039;-64
2023/07/28 08:56:33;;;;;;;0.50;0.30;;;;;;;30.35;49.54;100499.78;5052927;28;20037;-64
2023/07/28 08:58:59;;;;;;;1.85;0.30;;;;;;;30.23;49.86;100494.50;5053242;28;20102;-64
2023/07/28 09:01:25;;;;;;;0.38;0.30;;;;;;;30.38;48.80;100493.75;5053046;28;20562;-64
2023/07/28 09:03:50;;;;;;;3.13;0.40;;;;;;;30.51;48.37;100490.53;5051738;28;20048;-64
2023/07/28 09:06:15;;;;;;;2.10;0.60;;;;;;;30.46;48.84;100496.03;5057546;28;20411;-65
2023/07/28 09:08:43;;;;;;;1.50;0.40;;;;;;;30.24;49.01;100498.06;5053026;28;20036;-64
2023/07/28 09:11:08;;;;;;;0.60;0.60;;;;;;;30.08;49.48;100493.53;5051798;28;20519;-64
2023/07/28 09:13:41;;;;;;;0.30;0.30;;;;;;;29.97;49.24;100503.69;5051373;28;20025;-64
2023/07/28 09:16:16;;;;;;;0.45;0.30;;;;;;;29.93;49.15;100508.91;5036383;28;20032;-64
2023/07/28 09:18:42;;;;;;;1.60;0.32;;;;;;;30.22;48.57;100505.81;5051694;28;20500;-64
2023/07/28 09:21:20;;;;;;;0.70;0.30;;;;;;;30.69;47.63;100505.81;5051584;28;20082;-64
2023/07/28 09:23:48;;;;;;;0.17;0.17;;;;;;;30.82;47.66;100508.13;5051405;28;20059;-64
2023/07/28 09:26:15;;;;;;;0.45;0.17;;;;;;;31.09;46.97;100503.28;5051422;28;20183;-64
2023/07/28 09:28:41;;;;;;;0.30;0.30;;;;;;;30.94;47.53;100498.50;5051566;28;20033;-64
2023/07/28 09:31:07;;;;;;;1.40;0.30;;;;;;;30.69;48.01;100505.81;5051408;28;20519;-64
2023/07/28 09:33:34;;;;;;;0.35;0.35;;;;;;;30.49;47.93;100507.38;5053129;28;20044;-64
2023/07/28 09:36:16;;;;;;;0.68;0.20;;;;;;;30.26;47.91;100502.25;5034821;28;20500;-64
2023/07/28 09:38:42;;;;;;;0.20;0.20;;;;;;;30.17;48.16;100509.38;5051514;28;20041;-64
2023/07/28 09:41:11;;;;;;;0.20;0.20;;;;;;;29.99;48.46;100518.06;5051521;28;20039;-63
2023/07/28 09:43:40;;;;;;;0.70;0.20;;;;;;;29.88;48.52;100522.69;5048606;28;20033;-63
2023/07/28 09:46:09;;;;;;;0.30;0.30;;;;;;;29.91;48.36;100510.28;5052747;28;20072;-64
2023/07/28 09:48:37;;;;;;;0.30;0.17;;;;;;;30.58;47.58;100513.25;5052884;28;20036;-63
2023/07/28 09:51:06;;;;;;;0.90;0.25;;;;;;;31.14;46.89;100519.88;5051741;28;20033;-63
2023/07/28 09:53:36;;;;;;;0.20;0.20;;;;;;;31.92;45.54;100509.50;5034941;28;20045;-64
2023/07/28 09:56:02;;;;;;;0.30;0.30;;;;;;;32.56;45.61;100504.19;5034340;28;20552;-64
2023/07/28 09:58:29;;;;;;;0.75;0.30;;;;;;;32.70;45.00;100517.19;5034857;28;20106;-64
2023/07/28 10:00:54;;;;;;;1.10;0.45;;;;;;;32.58;45.34;100508.34;5034796;28;20029;-64
2023/07/28 10:03:20;;;;;;;0.80;0.30;;;;;;;32.53;45.80;100518.59;5035411;28;20058;-64
2023/07/28 10:05:46;;;;;;;0.30;0.30;;;;;;;32.28;45.64;100513.94;5052258;28;20496;-64
2023/07/28 10:08:12;;;;;;;0.38;0.38;;;;;;;32.11;45.77;100530.03;5034568;28;20033;-64
2023/07/28 10:10:37;;;;;;;0.28;0.25;;;;;;;31.89;46.50;100521.13;5050575;28;20082;-64
2023/07/28 10:13:04;;;;;;;1.15;0.20;;;;;;;31.58;46.03;100523.06;5051230;28;20029;-65
2023/07/28 10:15:31;;;;;;;3.00;0.20;;;;;;;31.28;46.62;100525.72;5034431;28;20025;-64
2023/07/28 10:17:59;;;;;;;0.20;0.20;;;;;;;31.10;47.32;100525.13;5051151;28;20025;-63
2023/07/28 10:20:35;;;;;;;0.28;0.28;;;;;;;31.01;47.54;100525.94;5052287;28;20074;-64
2023/07/28 10:23:14;;;;;;;0.30;0.30;;;;;;;30.97;47.19;100530.34;5051280;28;20409;-64
2023/07/28 10:25:44;;;;;;;0.15;0.15;;;;;;;31.06;47.19;100531.47;5054780;28;20576;-63
2023/07/28 10:28:31;;;;;;;0.47;0.20;;;;;;;31.19;46.87;100528.19;5054776;28;20505;-64
2023/07/28 10:30:58;;;;;;;0.10;0.10;;;;;;;31.35;46.12;100531.84;5055963;28;20029;-64
2023/07/28 10:33:30;;;;;;;0.10;0.10;;;;;;;31.56;45.82;100523.34;5054588;28;20025;-63
2023/07/28 10:35:58;;;;;;;0.60;0.60;;;;;;;31.81;45.83;100530.00;5054733;28;20037;-63
2023/07/28 10:38:30;;;;;;;0.68;0.22;;;;;;;32.28;44.67;100525.03;5055022;28;20052;-63
2023/07/28 10:41:04;;;;;;;;;;;;;;;32.18;44.88;100536.97;5056673;28;20039;-63
2023/07/28 10:43:30;;;;;;;0.20;0.20;;;;;;;32.05;46.48;100525.63;5038060;28;19982;-63
2023/07/28 10:45:56;;;;;;;4.70;0.63;;;;;;;31.88;45.99;100527.81;5054714;28;20560;-63
2023/07/28 10:48:22;;;;;;;3.53;1.95;;;;;;;31.66;46.46;100530.81;5038061;28;20086;-64
2023/07/28 10:50:49;;;;;;;0.57;0.40;;;;;;;31.43;45.95;100529.38;5054539;28;20037;-63
2023/07/28 10:53:15;;;;;;;0.30;0.30;;;;;;;31.25;46.65;100529.88;5055841;28;20041;-63
2023/07/28 10:55:41;;;;;;;0.65;0.40;;;;;;;31.11;46.60;100525.97;5055636;28;20082;-63
2023/07/28 10:58:06;;;;;;;1.50;0.40;;;;;;;31.01;46.40;100531.47;5041966;28;20041;-64
2023/07/28 11:00:31;;;;;;;0.85;0.25;;;;;;;30.97;46.54;100527.56;5038232;28;20407;-63
2023/07/28 11:02:57;;;;;;;0.63;0.60;;;;;;;30.86;46.84;100523.91;5055961;28;20033;-63
2023/07/28 11:05:27;;;;;;;0.10;0.10;;;;;;;30.84;46.17;100530.81;5037675;28;20504;-63
2023/07/28 11:07:58;;;;;;;0.20;0.20;;;;;;;30.91;46.30;100534.16;5054518;28;20518;-64
2023/07/28 11:10:24;;;;;;;0.32;0.32;;;;;;;30.86;46.56;100539.66;5037943;28;20040;-64
2023/07/28 11:12:52;;;;;;;0.82;0.25;;;;;;;30.72;47.37;100538.47;5054756;28;20029;-63
2023/07/28 11:15:18;;;;;;;0.43;0.20;;;;;;;30.56;47.47;100540.34;5055567;28;20029;-63
2023/07/28 11:17:50;;;;;;;0.20;0.20;;;;;;;30.34;47.43;100540.47;5054048;28;20033;-63
2023/07/28 11:20:20;;;;;;;0.20;0.20;;;;;;;30.11;47.79;100546.34;5054007;28;20036;-63